Airfield :
LOGIN :

Register | Disclaimer

   EN    FR    IT 

 










Legend :    VFR   Marginal VFR   IFR   Intensive IFR   Very Intensive IFR
Visi :
Ceiling :
>= 8 km
>= 3000ft
5 to 8 km
1000 to 3000 ft
1500m to 5 km
500 to 1000 ft
800 to 1500m
200 to 500 ft
< 800m
< 200 ft
Symbols :   Thunderstorms  Fog  Heavy snow  Heavy precipitations  Wind > 20 kt
SIGMETs :     Misc.  Thunderstorms  Icing  Turbulence  Mountain Waves  Volcanic Ashes






- Airport Elevation : 286 ft
- IATA code : FFD


EGVA - RAF Fairford

CURRENT METAR :
  • 292016Z AUTO 23017KT 9999 -DZ BKN014 OVC020 14/13 A2983 RMK AO2 DZB16 SLP105 $

EXPIRED METARs :
  • 291956Z AUTO 23015G22KT 9999 BKN013 OVC018 14/13 A2984 RMK AO2 CIG 013V019 BKN V SCT SLP108 T01360130 $
  • 291941Z AUTO 22014G21KT 9999 BKN013 BKN019 BKN027 OVC032 14/13 A2984 RMK AO2 CIG 013V030 SLP108 $
  • 291921Z AUTO 22012KT 9999 SCT011 SCT019 OVC030 13/13 A2983 RMK AO2 SLP105 $
  • 291856Z AUTO 22014KT 9999 OVC010 13/13 A2984 RMK AO2 SLP109 T01320130 $
  • 291756Z AUTO 22012KT 9999 BKN012 OVC020 13/13 A2983 RMK AO2 SLP105 60000 T01320129 10142 20132 53005 $
  • 291751Z AUTO 23013KT 9999 BKN012 OVC018 13/13 A2983 RMK AO2 SLP105 $
  • 291731Z AUTO 23014KT 9999 BKN016 OVC024 13/13 A2983 RMK AO2 CIG 016V023 BKN V SCT SLP105 $

TAF TAF EGVA
Valid from the 29 at 05:00 until the 30 at 11:00 UTC


290527Z 2905/3011 21009KT 9999 SCT010 BKN020 QNH2985INS
BECMG 2906/2907 21012G20KT 8000 -RA SCT007 BKN015 OVC025 620809 QNH2984INS
TEMPO 2908/2910 4000 RA BKN007 OVC015
BECMG 2910/2911 23015G25KT 6000 -RA SCT010 BKN015 OVC020 QNH2983INS
BECMG 2913/2914 23015G25KT 9999 NSW SCT015 BKN020 OVC030 QNH2983INS
TEMPO 2914/2918 8000 -DZ BKN015
TEMPO 3002/3010 8000 -DZ BKN015
BECMG 3009/3010 23010G20KT 8000 -SHRA SCT007 BKN010 OVC015 QNH2993INS TX13/2912Z TN08/2905Z LAST NO AMDS AFT 2905 NEXT 3006



MET'MAP, your aeronautical weather chart ! - Copyright ORBIFLY December 2007 - Disclaimer

ORBIFLY MET'MAP TEAM :

Programming & Development : Alexandra Zaïnal
Concept & original design : Baudouin d'Aumeries
Assistance for programming : Marc-Olivier Méhu
Technical & hardware support : Manuel Goepfert

Contact : metmap@orbifly.com




SOURCES & CREDITS :

   NOAA